Time;durP1;ratioP1;P1;durP2;ratioP2;P2;SDS_P1;SDS_P2;PMS_P1;PMS_P2;Temp;Humidity;BMP_temperature;BMP_pressure;BME280_temperature;BME280_humidity;BME280_pressure;Samples;Min_cycle;Max_cycle;Signal;HPM_P1;HPM_P2
2022/05/16 00:02:24;;;;;;;1.63;1.30;;;20.30;95.70;;;;;;7386741;19;20313;-75
2022/05/16 00:04:51;;;;;;;2.45;1.33;;;20.50;95.40;;;;;;7389111;19;20215;-78
2022/05/16 00:07:19;;;;;;;2.50;1.80;;;20.10;95.50;;;;;;7396375;19;20201;-74
2022/05/16 00:09:45;;;;;;;1.80;1.40;;;20.20;95.40;;;;;;7385513;19;20139;-74
2022/05/16 00:12:12;;;;;;;2.38;1.17;;;20.10;95.40;;;;;;7385134;19;20138;-74
2022/05/16 00:14:40;;;;;;;2.83;1.40;;;19.70;96.20;;;;;;7387273;19;20134;-81
2022/05/16 00:17:06;;;;;;;2.25;1.50;;;19.90;96.10;;;;;;7385712;19;20131;-78
2022/05/16 00:19:32;;;;;;;2.70;1.50;;;20.30;96.10;;;;;;7385450;19;20162;-75
2022/05/16 00:21:58;;;;;;;5.13;1.60;;;19.90;96.70;;;;;;7385720;19;20149;-79
2022/05/16 00:24:26;;;;;;;2.95;1.35;;;20.00;96.70;;;;;;7391615;19;20150;-78
2022/05/16 00:26:56;;;;;;;1.98;1.50;;;20.10;97.00;;;;;;7406133;19;20155;-78
2022/05/16 00:29:22;;;;;;;2.13;1.52;;;20.10;96.90;;;;;;7389698;19;20138;-76
2022/05/16 00:31:49;;;;;;;3.83;1.63;;;19.60;97.30;;;;;;7397157;19;20135;-80
2022/05/16 00:34:15;;;;;;;3.22;1.73;;;19.80;97.50;;;;;;7396640;19;20138;-76
2022/05/16 00:36:47;;;;;;;2.85;1.52;;;20.00;97.20;;;;;;7393728;19;20142;-74
2022/05/16 00:39:19;;;;;;;3.45;1.60;;;20.10;97.10;;;;;;7395667;19;20129;-79
2022/05/16 00:41:46;;;;;;;1.63;1.40;;;20.10;97.20;;;;;;7391808;19;20139;-75
2022/05/16 00:44:12;;;;;;;3.55;1.63;;;20.10;97.20;;;;;;7393360;19;20143;-74
2022/05/16 00:46:38;;;;;;;3.40;1.58;;;19.80;97.60;;;;;;7401054;19;20139;-75
2022/05/16 00:49:09;;;;;;;3.47;1.55;;;20.00;97.80;;;;;;7399075;19;20509;-81
2022/05/16 00:51:43;;;;;;;3.25;1.90;;;20.10;97.60;;;;;;7393872;19;20134;-79
2022/05/16 00:54:37;;;;;;;2.40;1.70;;;20.10;97.60;;;;;;7395120;19;20137;-82
2022/05/16 00:57:13;;;;;;;2.83;1.60;;;20.00;97.80;;;;;;7390460;19;20149;-82
2022/05/16 01:00:00;;;;;;;3.65;1.70;;;19.50;98.50;;;;;;7390741;19;20150;-80
2022/05/16 01:05:12;;;;;;;3.25;1.80;;;19.20;99.60;;;;;;7397413;19;20130;-81
2022/05/16 01:07:42;;;;;;;2.35;1.45;;;19.30;99.70;;;;;;7392222;19;20181;-75
2022/05/16 01:10:10;;;;;;;2.50;1.77;;;19.30;99.60;;;;;;7392415;19;20143;-75
2022/05/16 01:12:39;;;;;;;2.15;1.45;;;19.40;99.70;;;;;;7399123;19;20202;-75
2022/05/16 01:15:15;;;;;;;5.25;2.10;;;19.60;99.50;;;;;;7395003;19;20143;-81
2022/05/16 01:17:41;;;;;;;2.42;1.75;;;19.70;99.40;;;;;;7391856;19;20138;-81
2022/05/16 01:20:09;;;;;;;3.88;2.03;;;19.30;99.80;;;;;;7389853;19;20151;-75
2022/05/16 01:22:37;;;;;;;5.15;2.05;;;19.40;99.70;;;;;;7390375;19;20170;-82
2022/05/16 01:25:11;;;;;;;2.38;1.33;;;19.30;99.80;;;;;;7390198;19;20158;-80
2022/05/16 01:27:42;;;;;;;2.10;1.80;;;19.10;99.90;;;;;;7389207;19;20127;-74
2022/05/16 01:30:09;;;;;;;1.83;1.30;;;19.10;99.90;;;;;;7391508;19;20545;-79
2022/05/16 01:32:35;;;;;;;2.40;1.50;;;18.90;99.90;;;;;;7392542;19;20146;-74
2022/05/16 01:35:01;;;;;;;3.13;1.60;;;18.60;99.90;;;;;;7406916;19;20143;-79
2022/05/16 01:38:18;;;;;;;2.85;1.60;;;18.60;99.90;;;;;;7394307;19;20151;-75
2022/05/16 01:40:12;;;;;;;3.00;1.45;;;18.80;99.90;;;;;;7387788;19;20139;-80
2022/05/16 01:42:38;;;;;;;2.70;1.45;;;18.70;99.90;;;;;;7388718;19;20155;-79
2022/05/16 01:45:04;;;;;;;2.97;1.35;;;18.40;99.90;;;;;;7393677;19;20627;-80
2022/05/16 01:47:33;;;;;;;3.22;1.48;;;18.70;99.90;;;;;;7391440;19;20126;-74
2022/05/16 01:49:59;;;;;;;4.00;1.38;;;18.90;99.90;;;;;;7393137;19;20139;-75
2022/05/16 01:52:25;;;;;;;4.30;1.30;;;19.20;99.90;;;;;;7391424;19;20518;-81
2022/05/16 01:54:51;;;;;;;1.63;1.30;;;19.20;99.90;;;;;;7390296;19;20188;-81
2022/05/16 01:57:17;;;;;;;3.00;1.20;;;19.20;99.90;;;;;;7391465;19;20130;-79
2022/05/16 01:59:43;;;;;;;1.58;1.23;;;19.30;99.90;;;;;;7396804;19;20137;-81
2022/05/16 02:02:08;;;;;;;2.75;1.45;;;19.00;99.80;;;;;;7391423;19;20133;-81
2022/05/16 02:04:34;;;;;;;1.98;1.30;;;18.70;99.90;;;;;;7393503;19;20138;-78
2022/05/16 02:07:00;;;;;;;2.38;1.27;;;18.90;99.90;;;;;;7390530;19;20143;-76
2022/05/16 02:09:26;;;;;;;2.28;1.30;;;19.10;99.90;;;;;;7392388;19;20218;-75
2022/05/16 02:11:52;;;;;;;1.77;1.38;;;19.30;99.90;;;;;;7393098;19;20131;-80
2022/05/16 02:14:19;;;;;;;3.58;1.63;;;19.40;99.90;;;;;;7392650;19;20147;-81
2022/05/16 02:16:46;;;;;;;1.98;1.38;;;19.40;99.90;;;;;;7389200;19;20138;-80
2022/05/16 02:19:12;;;;;;;3.58;1.20;;;19.50;99.70;;;;;;7389494;19;20143;-79
2022/05/16 02:24:39;;;;;;;3.30;1.63;;;19.20;99.60;;;;;;7388369;19;20173;-81
2022/05/16 02:27:07;;;;;;;2.83;1.35;;;19.20;99.70;;;;;;7389101;19;20134;-80
2022/05/16 02:29:34;;;;;;;2.30;1.55;;;18.90;99.90;;;;;;7391246;19;20146;-80
2022/05/16 02:32:01;;;;;;;5.10;2.03;;;19.10;99.90;;;;;;7390240;19;20235;-82
2022/05/16 02:34:27;;;;;;;2.72;1.45;;;19.20;99.90;;;;;;7389232;19;20564;-80
2022/05/16 02:36:53;;;;;;;2.38;1.40;;;19.00;99.90;;;;;;7392258;19;20155;-75
2022/05/16 02:39:19;;;;;;;2.80;1.60;;;18.90;99.90;;;;;;7391494;19;20546;-81
2022/05/16 02:41:45;;;;;;;3.42;1.58;;;19.00;99.90;;;;;;7389024;19;20153;-81
2022/05/16 02:44:13;;;;;;;6.45;1.27;;;19.10;99.90;;;;;;7400607;19;20142;-78
2022/05/16 02:46:39;;;;;;;3.95;1.40;;;19.00;99.90;;;;;;7395001;19;20123;-80
2022/05/16 02:49:05;;;;;;;1.85;1.00;;;19.10;99.90;;;;;;7388999;19;20127;-81
2022/05/16 02:51:31;;;;;;;2.75;1.65;;;19.20;99.90;;;;;;7389235;19;20146;-81
2022/05/16 02:53:57;;;;;;;4.63;1.40;;;19.20;99.90;;;;;;7385915;19;20142;-79
2022/05/16 02:56:23;;;;;;;2.53;1.50;;;19.10;99.90;;;;;;7388652;19;20139;-81
2022/05/16 02:58:49;;;;;;;3.80;1.50;;;18.90;99.90;;;;;;7387818;19;20159;-81
2022/05/16 03:01:15;;;;;;;3.83;1.48;;;18.90;99.90;;;;;;7388306;19;20122;-74
2022/05/16 03:03:41;;;;;;;2.15;1.63;;;18.80;99.90;;;;;;7394160;19;20156;-80
2022/05/16 03:06:08;;;;;;;3.50;1.20;;;19.00;99.90;;;;;;7390912;19;20135;-81
2022/05/16 03:08:37;;;;;;;1.58;1.30;;;19.00;99.90;;;;;;7388532;19;20226;-80
2022/05/16 03:11:03;;;;;;;2.05;1.30;;;19.10;99.90;;;;;;7388672;19;20139;-79
2022/05/16 03:13:29;;;;;;;2.72;1.70;;;18.90;99.90;;;;;;7387251;19;20869;-81
2022/05/16 03:15:55;;;;;;;1.75;1.23;;;19.00;99.90;;;;;;7387757;19;20127;-74
2022/05/16 03:18:23;;;;;;;1.35;1.10;;;19.10;99.90;;;;;;7386086;19;20126;-82
2022/05/16 03:20:50;;;;;;;1.98;1.40;;;19.10;99.90;;;;;;7388281;19;20127;-81
2022/05/16 03:23:16;;;;;;;2.22;1.40;;;19.10;99.90;;;;;;7385543;19;20165;-75
2022/05/16 03:25:41;;;;;;;1.60;1.40;;;19.10;99.80;;;;;;7387423;19;20127;-80
2022/05/16 03:28:07;;;;;;;1.50;1.08;;;19.20;99.70;;;;;;7392192;19;20168;-75
2022/05/16 03:30:33;;;;;;;2.20;1.25;;;19.20;99.80;;;;;;7392258;19;20127;-74
2022/05/16 03:32:59;;;;;;;4.15;1.58;;;19.20;99.80;;;;;;7386274;19;20133;-75
2022/05/16 03:35:25;;;;;;;1.52;1.17;;;19.30;99.80;;;;;;7388361;19;20143;-79
2022/05/16 03:37:50;;;;;;;1.42;1.25;;;19.40;99.60;;;;;;7392040;19;20152;-75
2022/05/16 03:43:00;;;;;;;3.20;1.40;;;19.50;99.50;;;;;;7386271;19;20563;-76
2022/05/16 03:45:26;;;;;;;1.58;1.30;;;19.60;99.80;;;;;;7386370;19;20471;-75
2022/05/16 03:47:52;;;;;;;2.00;1.35;;;19.60;99.80;;;;;;7393124;19;20150;-80
2022/05/16 03:50:18;;;;;;;2.55;1.40;;;19.30;99.60;;;;;;7388771;19;20138;-74
2022/05/16 03:52:44;;;;;;;2.85;1.42;;;19.40;99.90;;;;;;7387124;19;20201;-78
2022/05/16 03:55:15;;;;;;;2.67;1.50;;;19.50;99.90;;;;;;7386201;19;20142;-74
2022/05/16 03:57:41;;;;;;;1.73;1.40;;;19.40;99.90;;;;;;7385792;19;20235;-80
2022/05/16 04:00:12;;;;;;;1.65;1.20;;;19.50;99.90;;;;;;7386513;19;20127;-80
2022/05/16 04:02:39;;;;;;;2.55;1.55;;;19.40;99.90;;;;;;7386136;19;20138;-80
2022/05/16 04:05:07;;;;;;;3.08;1.30;;;19.50;99.90;;;;;;7386826;19;20130;-80
2022/05/16 04:07:33;;;;;;;2.08;1.38;;;19.40;99.90;;;;;;7386077;19;20163;-80
2022/05/16 04:10:00;;;;;;;3.40;1.38;;;19.40;99.90;;;;;;7390923;19;20139;-80
2022/05/16 04:12:27;;;;;;;2.17;1.50;;;19.40;99.90;;;;;;7389321;19;20126;-74
2022/05/16 04:14:53;;;;;;;2.03;1.42;;;19.40;99.90;;;;;;7386891;19;20142;-82
2022/05/16 04:17:19;;;;;;;1.70;1.20;;;19.50;99.90;;;;;;7385279;19;20131;-81
2022/05/16 04:19:45;;;;;;;1.40;1.30;;;19.60;99.90;;;;;;7387819;19;20561;-75
2022/05/16 04:22:12;;;;;;;1.45;1.10;;;19.60;99.90;;;;;;7385484;19;20142;-80
2022/05/16 04:24:38;;;;;;;2.65;1.38;;;19.60;99.90;;;;;;7385052;19;20156;-74
2022/05/16 04:27:05;;;;;;;2.55;1.40;;;19.60;99.90;;;;;;7384679;19;20131;-76
2022/05/16 04:29:30;;;;;;;1.92;1.50;;;19.60;99.90;;;;;;7385472;19;20150;-80
2022/05/16 04:31:57;;;;;;;1.63;1.45;;;19.70;99.90;;;;;;7387258;19;20165;-80
2022/05/16 04:34:22;;;;;;;2.33;1.60;;;19.70;99.90;;;;;;7395517;19;20138;-79
2022/05/16 04:36:48;;;;;;;1.77;1.30;;;19.50;99.90;;;;;;7386471;19;20210;-76
2022/05/16 04:39:14;;;;;;;1.83;1.45;;;19.70;99.90;;;;;;7385463;19;20499;-74
2022/05/16 04:44:24;;;;;;;4.00;2.03;;;19.80;99.90;;;;;;7384105;19;20147;-81
2022/05/16 04:46:50;;;;;;;2.42;1.88;;;19.70;99.90;;;;;;7385499;19;20137;-79
2022/05/16 04:49:16;;;;;;;5.38;1.52;;;19.20;99.90;;;;;;7384502;19;20245;-80
2022/05/16 04:51:42;;;;;;;2.42;1.65;;;19.20;99.90;;;;;;7384949;19;20139;-79
2022/05/16 04:54:07;;;;;;;2.70;1.73;;;19.10;99.90;;;;;;7389165;19;20184;-78
2022/05/16 04:56:33;;;;;;;4.05;1.70;;;19.30;99.90;;;;;;7385733;19;20131;-74
2022/05/16 04:59:00;;;;;;;4.20;1.70;;;19.40;99.90;;;;;;7384777;19;20122;-74
2022/05/16 05:01:25;;;;;;;2.95;2.05;;;19.40;99.90;;;;;;7383560;19;20138;-80
2022/05/16 05:03:51;;;;;;;5.30;2.03;;;19.50;99.90;;;;;;7385735;19;20144;-75
2022/05/16 05:06:20;;;;;;;3.22;1.48;;;19.40;99.90;;;;;;7384588;19;20137;-75
2022/05/16 05:08:46;;;;;;;3.28;1.75;;;19.40;99.90;;;;;;7382776;19;20160;-76
2022/05/16 05:16:41;;;;;;;5.68;2.00;;;19.70;99.90;;;;;;7389423;19;20143;-81
2022/05/16 05:19:07;;;;;;;5.90;2.40;;;19.80;99.90;;;;;;7397720;19;20158;-82
2022/05/16 05:21:33;;;;;;;5.40;1.95;;;19.80;99.90;;;;;;7392319;19;20143;-82
2022/05/16 05:23:59;;;;;;;3.05;1.95;;;19.80;99.90;;;;;;7389522;19;20138;-82
2022/05/16 05:26:25;;;;;;;6.72;2.05;;;19.80;99.90;;;;;;7393882;19;20173;-82
2022/05/16 05:28:51;;;;;;;2.92;1.83;;;19.80;99.90;;;;;;7393636;19;20139;-83
2022/05/16 05:31:20;;;;;;;4.75;2.20;;;19.80;99.90;;;;;;7393032;19;20156;-76
2022/05/16 05:33:46;;;;;;;4.50;1.92;;;19.70;99.90;;;;;;7393847;19;20126;-80
2022/05/16 05:36:12;;;;;;;6.78;2.13;;;19.70;99.90;;;;;;7391228;19;20587;-78
2022/05/16 05:38:38;;;;;;;2.78;2.10;;;19.80;99.90;;;;;;7398679;19;20139;-79
2022/05/16 05:41:05;;;;;;;4.75;2.22;;;19.80;99.90;;;;;;7392572;19;20138;-79
2022/05/16 05:43:32;;;;;;;4.88;2.28;;;20.00;99.90;;;;;;7393678;19;20227;-79
2022/05/16 05:45:58;;;;;;;4.00;2.20;;;19.90;99.90;;;;;;7393426;19;20131;-83
2022/05/16 05:48:25;;;;;;;6.50;2.17;;;19.90;99.90;;;;;;7394486;19;20207;-76
2022/05/16 05:50:51;;;;;;;4.50;2.45;;;19.90;99.90;;;;;;7394024;19;20355;-79
2022/05/16 05:53:17;;;;;;;6.63;2.50;;;20.00;99.90;;;;;;7394557;19;20138;-81
2022/05/16 05:55:43;;;;;;;7.10;2.67;;;20.00;99.90;;;;;;7392025;19;20789;-79
2022/05/16 05:58:09;;;;;;;6.18;2.10;;;20.00;99.90;;;;;;7390661;19;20645;-81
2022/05/16 06:00:35;;;;;;;7.20;2.20;;;20.00;99.90;;;;;;7394426;19;20123;-80
2022/05/16 06:03:01;;;;;;;4.68;2.60;;;20.00;99.90;;;;;;7405062;19;20686;-80
2022/05/16 06:05:27;;;;;;;6.50;2.50;;;20.00;99.90;;;;;;7393299;19;20176;-80
2022/05/16 06:07:53;;;;;;;6.90;2.65;;;20.00;99.90;;;;;;7393134;19;20653;-78
2022/05/16 06:10:19;;;;;;;4.47;2.25;;;20.10;99.90;;;;;;7388538;19;20138;-77
2022/05/16 06:12:45;;;;;;;4.25;2.38;;;20.00;99.90;;;;;;7389557;19;20147;-79
2022/05/16 06:15:14;;;;;;;3.03;2.10;;;20.00;99.90;;;;;;7390987;19;20130;-80
2022/05/16 06:17:40;;;;;;;5.82;2.67;;;20.10;99.90;;;;;;7388345;19;20620;-78
2022/05/16 06:20:10;;;;;;;2.90;2.05;;;20.10;99.90;;;;;;7390920;19;20126;-77
2022/05/16 06:22:37;;;;;;;5.03;2.58;;;20.20;99.90;;;;;;7391240;19;20213;-81
2022/05/16 06:25:31;;;;;;;5.38;2.33;;;20.30;99.90;;;;;;7393846;19;20189;-79
2022/05/16 06:28:03;;;;;;;6.93;3.30;;;20.40;99.90;;;;;;7399760;19;20148;-76
2022/05/16 06:30:29;;;;;;;6.30;2.30;;;20.30;99.90;;;;;;7395900;19;20156;-76
2022/05/16 06:32:55;;;;;;;4.72;2.40;;;20.30;99.90;;;;;;7389272;19;20131;-80
2022/05/16 06:35:21;;;;;;;4.53;2.08;;;20.40;99.90;;;;;;7394034;19;20138;-78
2022/05/16 06:37:47;;;;;;;2.50;1.80;;;20.60;99.90;;;;;;7393806;19;20131;-78
2022/05/16 06:40:15;;;;;;;5.38;2.15;;;20.60;99.90;;;;;;7389241;19;20459;-79
2022/05/16 06:42:41;;;;;;;3.20;2.17;;;20.80;99.90;;;;;;7389008;19;20137;-78
2022/05/16 06:45:08;;;;;;;9.27;2.40;;;21.10;99.90;;;;;;7390643;19;20469;-78
2022/05/16 06:47:34;;;;;;;4.18;2.58;;;21.70;99.90;;;;;;7387471;19;20146;-78
2022/05/16 06:50:00;;;;;;;5.90;2.25;;;22.20;99.90;;;;;;7389800;19;20139;-78
2022/05/16 06:52:26;;;;;;;4.13;2.30;;;22.80;99.90;;;;;;7391493;19;20162;-78
2022/05/16 06:54:52;;;;;;;3.65;2.47;;;23.40;99.90;;;;;;7398480;19;20849;-78
2022/05/16 06:57:18;;;;;;;7.68;2.70;;;23.80;99.90;;;;;;7388291;19;20134;-75
2022/05/16 06:59:44;;;;;;;9.35;2.92;;;23.80;99.90;;;;;;7386828;19;20139;-78
2022/05/16 07:02:12;;;;;;;6.15;2.53;;;23.90;99.90;;;;;;7388191;19;20175;-77
2022/05/16 07:04:39;;;;;;;5.53;2.33;;;24.00;99.90;;;;;;7388423;19;20138;-78
2022/05/16 07:07:09;;;;;;;4.03;2.40;;;24.50;99.90;;;;;;7390412;19;20143;-78
2022/05/16 07:09:41;;;;;;;5.25;2.10;;;24.70;99.90;;;;;;7388085;19;20594;-77
2022/05/16 07:12:09;;;;;;;3.13;2.08;;;25.00;99.90;;;;;;7388051;19;20152;-77
2022/05/16 07:14:37;;;;;;;3.38;1.75;;;25.80;99.20;;;;;;7387662;19;20150;-77
2022/05/16 07:17:03;;;;;;;4.10;2.33;;;25.60;99.10;;;;;;7388625;19;20138;-79
2022/05/16 07:19:31;;;;;;;6.75;2.00;;;26.10;99.10;;;;;;7389240;19;20151;-78
2022/05/16 07:21:58;;;;;;;3.13;1.50;;;26.10;97.50;;;;;;7397915;19;20147;-78
2022/05/16 07:24:25;;;;;;;3.05;1.80;;;26.00;97.60;;;;;;7392640;19;20183;-78
2022/05/16 07:29:35;;;;;;;3.83;2.08;;;25.90;97.50;;;;;;7386246;19;20138;-78
2022/05/16 07:32:01;;;;;;;5.38;1.98;;;25.60;97.90;;;;;;7386353;19;20151;-79
2022/05/16 07:34:26;;;;;;;5.38;2.10;;;25.20;98.70;;;;;;7385693;19;20142;-77
2022/05/16 07:36:52;;;;;;;4.55;2.63;;;25.20;98.90;;;;;;7388478;19;20149;-80
2022/05/16 07:39:18;;;;;;;4.30;2.50;;;25.40;98.60;;;;;;7387469;19;20151;-77
2022/05/16 07:41:44;;;;;;;4.38;1.90;;;25.60;98.50;;;;;;7386136;19;20145;-79
2022/05/16 07:44:11;;;;;;;2.78;1.90;;;25.20;98.70;;;;;;7386821;19;20226;-79
2022/05/16 07:46:37;;;;;;;3.95;2.75;;;25.10;99.30;;;;;;7393735;19;20142;-78
2022/05/16 07:49:04;;;;;;;5.07;2.80;;;24.90;99.60;;;;;;7389469;19;20423;-79
2022/05/16 07:51:30;;;;;;;2.33;2.10;;;24.70;99.90;;;;;;7385767;19;20210;-80
2022/05/16 07:53:55;;;;;;;4.20;2.10;;;24.60;99.90;;;;;;7386261;19;20485;-76
2022/05/16 07:56:21;;;;;;;5.82;2.40;;;24.50;99.90;;;;;;7384674;19;20151;-78
2022/05/16 07:58:47;;;;;;;4.82;2.60;;;24.30;99.90;;;;;;7384607;19;20162;-76
2022/05/16 08:01:13;;;;;;;2.63;2.42;;;24.30;99.90;;;;;;7385148;19;20627;-78
2022/05/16 08:03:39;;;;;;;10.13;8.02;;;24.40;99.90;;;;;;7385078;19;20142;-77
2022/05/16 08:06:05;;;;;;;6.38;4.10;;;24.30;99.90;;;;;;7385815;19;20143;-78
2022/05/16 08:11:15;;;;;;;2.85;2.28;;;23.80;99.90;;;;;;7393711;19;20163;-77
2022/05/16 08:13:42;;;;;;;2.92;2.45;;;23.50;99.90;;;;;;7386544;19;20147;-79
2022/05/16 08:16:08;;;;;;;5.40;2.80;;;23.40;99.90;;;;;;7384918;19;20161;-76
2022/05/16 08:18:34;;;;;;;4.47;3.80;;;23.10;99.90;;;;;;7384660;19;20126;-77
2022/05/16 08:21:00;;;;;;;4.85;4.13;;;23.00;99.90;;;;;;7384617;19;20141;-78
2022/05/16 08:23:29;;;;;;;6.28;4.35;;;23.10;99.90;;;;;;7383449;19;20135;-76
2022/05/16 08:25:58;;;;;;;6.65;3.35;;;22.90;99.90;;;;;;7385806;19;20179;-78
2022/05/16 08:28:24;;;;;;;5.65;4.30;;;22.70;99.90;;;;;;7392209;19;20138;-77
2022/05/16 08:30:52;;;;;;;3.42;2.80;;;22.70;99.90;;;;;;7388313;19;20146;-77
2022/05/16 08:33:18;;;;;;;7.25;5.55;;;22.70;99.90;;;;;;7385047;19;20148;-79
2022/05/16 08:35:44;;;;;;;7.53;5.00;;;22.80;99.90;;;;;;7386067;19;20590;-78
2022/05/16 08:40:56;;;;;;;5.25;2.90;;;23.10;99.90;;;;;;7384952;19;20127;-77
2022/05/16 08:43:46;;;;;;;4.93;3.30;;;23.20;99.90;;;;;;7384420;19;20840;-76
2022/05/16 08:46:24;;;;;;;4.68;3.72;;;23.10;99.90;;;;;;7386711;19;20478;-77
2022/05/16 08:48:56;;;;;;;5.35;2.67;;;23.20;99.90;;;;;;7389566;19;20150;-77
2022/05/16 08:51:26;;;;;;;5.30;3.25;;;23.40;99.90;;;;;;7387069;19;20183;-77
2022/05/16 08:53:58;;;;;;;5.53;2.90;;;23.90;99.90;;;;;;7392387;19;20150;-76
2022/05/16 08:56:30;;;;;;;6.03;2.75;;;24.70;99.90;;;;;;7393273;19;20149;-76
2022/05/16 08:59:00;;;;;;;4.43;2.72;;;25.10;99.90;;;;;;7390166;19;20143;-76
2022/05/16 09:01:47;;;;;;;3.75;2.30;;;25.60;99.90;;;;;;7391551;19;20649;-78
2022/05/16 09:04:18;;;;;;;4.20;3.80;;;26.00;99.90;;;;;;7390507;19;20177;-78
2022/05/16 09:07:01;;;;;;;4.55;3.35;;;26.20;99.90;;;;;;7392061;19;20130;-77
2022/05/16 09:09:54;;;;;;;4.43;2.67;;;26.20;99.90;;;;;;7396927;19;20137;-77
2022/05/16 09:13:06;;;;;;;5.70;3.38;;;25.80;99.90;;;;;;7391162;19;20147;-77
2022/05/16 09:15:51;;;;;;;7.65;3.70;;;25.60;99.90;;;;;;7392738;19;20590;-77
2022/05/16 09:18:29;;;;;;;5.20;3.65;;;25.40;99.90;;;;;;7392673;19;20127;-79
2022/05/16 09:21:07;;;;;;;5.40;3.67;;;25.60;99.90;;;;;;7391168;19;20778;-76
2022/05/16 09:24:07;;;;;;;5.07;2.25;;;26.20;99.90;;;;;;7393218;19;20630;-77
2022/05/16 09:27:11;;;;;;;3.83;2.67;;;26.70;99.90;;;;;;7390077;19;20139;-78
2022/05/16 09:29:45;;;;;;;4.90;2.63;;;26.90;99.90;;;;;;7392450;19;20158;-77
2022/05/16 09:32:27;;;;;;;5.70;3.53;;;27.10;99.30;;;;;;7396469;19;20241;-78
2022/05/16 09:34:54;;;;;;;5.68;4.15;;;26.90;98.70;;;;;;7398589;19;20155;-78
2022/05/16 09:37:20;;;;;;;4.82;2.78;;;26.60;98.60;;;;;;7395504;19;20149;-77
2022/05/16 09:39:48;;;;;;;2.75;2.40;;;26.50;98.30;;;;;;7387986;19;20135;-76
2022/05/16 09:42:20;;;;;;;4.95;3.00;;;26.60;98.50;;;;;;7390504;19;20198;-77
2022/05/16 09:45:02;;;;;;;4.45;2.65;;;26.50;98.80;;;;;;7389020;19;20134;-77
2022/05/16 09:47:28;;;;;;;3.40;2.72;;;26.50;99.50;;;;;;7389028;19;20130;-77
2022/05/16 09:50:20;;;;;;;4.80;2.33;;;26.30;98.70;;;;;;7390700;19;20154;-79
2022/05/16 09:53:09;;;;;;;3.08;2.35;;;26.10;98.50;;;;;;7393793;19;20142;-76
2022/05/16 09:55:53;;;;;;;3.35;2.17;;;26.00;99.00;;;;;;7391473;19;20135;-78
2022/05/16 09:58:24;;;;;;;4.68;2.38;;;25.90;98.90;;;;;;7389158;19;20211;-78
2022/05/16 10:01:08;;;;;;;3.97;2.28;;;25.90;98.80;;;;;;7389781;19;20135;-78
2022/05/16 10:03:35;;;;;;;4.65;2.85;;;25.70;98.30;;;;;;7389843;19;20617;-78
2022/05/16 10:06:09;;;;;;;5.80;4.72;;;25.70;98.80;;;;;;7390680;19;20162;-78
2022/05/16 10:08:38;;;;;;;3.75;2.60;;;26.00;98.80;;;;;;7390055;19;20142;-78
2022/05/16 10:11:19;;;;;;;6.80;2.80;;;26.00;97.90;;;;;;7391452;19;20817;-77
2022/05/16 10:13:46;;;;;;;2.83;2.53;;;26.20;98.00;;;;;;7391885;19;20300;-77
2022/05/16 10:16:12;;;;;;;5.20;3.08;;;26.00;97.60;;;;;;7393927;19;20139;-77
2022/05/16 10:18:49;;;;;;;7.60;5.20;;;25.80;98.00;;;;;;7389872;19;20218;-77
2022/05/16 10:21:39;;;;;;;15.45;7.40;;;25.80;97.90;;;;;;7390824;19;20147;-77
2022/05/16 10:24:08;;;;;;;7.30;4.43;;;25.90;98.50;;;;;;7389976;19;20570;-78
2022/05/16 10:26:42;;;;;;;5.07;3.53;;;25.90;98.00;;;;;;7388555;19;20148;-78
2022/05/16 10:29:12;;;;;;;6.10;3.22;;;25.80;98.20;;;;;;7389500;19;20134;-78
2022/05/16 10:34:44;;;;;;;6.07;3.58;;;25.70;98.20;;;;;;7388444;19;20499;-77
2022/05/16 10:37:10;;;;;;;4.30;3.10;;;25.90;98.40;;;;;;7391593;19;20130;-78
2022/05/16 10:39:45;;;;;;;5.00;2.53;;;25.80;98.60;;;;;;7387273;19;20131;-78
2022/05/16 10:42:26;;;;;;;6.22;4.30;;;25.50;98.40;;;;;;7390756;19;20570;-77
2022/05/16 10:45:20;;;;;;;5.05;3.58;;;25.30;98.60;;;;;;7392886;19;20159;-77
2022/05/16 10:48:00;;;;;;;8.38;3.88;;;25.20;98.90;;;;;;7387544;19;20874;-78
2022/05/16 10:50:38;;;;;;;5.78;2.85;;;25.20;99.40;;;;;;7388405;19;20705;-76
2022/05/16 10:53:18;;;;;;;5.97;2.90;;;25.10;99.60;;;;;;7390535;19;20469;-78
2022/05/16 10:55:53;;;;;;;4.28;2.30;;;25.00;99.50;;;;;;7388395;19;20151;-76
2022/05/16 10:58:25;;;;;;;3.45;2.38;;;24.90;99.60;;;;;;7388811;19;20242;-78
2022/05/16 11:01:09;;;;;;;5.90;2.42;;;24.90;99.70;;;;;;7389529;19;20601;-77
2022/05/16 11:03:53;;;;;;;4.22;2.15;;;25.00;99.20;;;;;;7388171;19;20138;-78
2022/05/16 11:06:28;;;;;;;3.38;1.73;;;24.80;99.10;;;;;;7392070;19;20135;-76
2022/05/16 11:09:16;;;;;;;4.25;2.15;;;24.60;99.40;;;;;;7390915;19;20235;-77
2022/05/16 11:11:57;;;;;;;5.30;2.20;;;24.50;99.60;;;;;;7387801;19;20130;-78
2022/05/16 11:14:38;;;;;;;4.30;2.00;;;24.50;99.60;;;;;;7385741;19;20134;-78
2022/05/16 11:17:25;;;;;;;2.55;1.85;;;24.50;99.80;;;;;;7387479;19;20202;-77
2022/05/16 11:19:56;;;;;;;3.03;1.80;;;24.50;99.80;;;;;;7392896;19;20160;-78
2022/05/16 11:22:31;;;;;;;5.50;2.30;;;24.50;99.90;;;;;;7386016;19;20163;-76
2022/05/16 11:25:17;;;;;;;3.97;1.75;;;24.30;99.90;;;;;;7388335;19;20129;-79
2022/05/16 11:27:45;;;;;;;5.22;3.03;;;24.10;99.90;;;;;;7389591;19;20162;-76
2022/05/16 11:30:20;;;;;;;4.03;2.13;;;23.80;99.90;;;;;;7392282;19;20162;-75
2022/05/16 11:32:52;;;;;;;3.20;2.10;;;23.90;99.90;;;;;;7386083;19;20207;-77
2022/05/16 11:35:43;;;;;;;5.28;1.80;;;23.80;99.90;;;;;;7386508;19;20151;-78
2022/05/16 11:38:27;;;;;;;4.57;1.65;;;23.70;99.90;;;;;;7385966;19;20812;-76
2022/05/16 11:41:14;;;;;;;2.97;1.48;;;23.80;99.90;;;;;;7386685;19;20186;-75
2022/05/16 11:43:51;;;;;;;3.97;1.30;;;23.70;99.90;;;;;;7386113;19;20155;-78
2022/05/16 11:46:33;;;;;;;3.72;1.20;;;23.60;99.90;;;;;;7391495;19;20138;-77
2022/05/16 11:49:05;;;;;;;3.20;1.40;;;23.50;99.90;;;;;;7386953;19;20143;-76
2022/05/16 11:52:13;;;;;;;3.47;1.30;;;23.50;99.90;;;;;;7388238;19;20153;-79
2022/05/16 11:54:52;;;;;;;2.50;1.23;;;23.40;99.90;;;;;;7385852;19;20143;-76
2022/05/16 12:03:08;;;;;;;3.58;0.98;;;23.20;99.70;;;;;;7385598;19;20501;-76
2022/05/16 12:05:42;;;;;;;3.05;1.58;;;23.20;99.90;;;;;;7385233;19;20154;-76
2022/05/16 12:08:24;;;;;;;2.45;0.90;;;23.00;99.90;;;;;;7388585;19;20130;-76
2022/05/16 12:10:57;;;;;;;2.80;1.33;;;23.00;99.60;;;;;;7387556;19;20202;-76
2022/05/16 12:13:27;;;;;;;1.40;1.10;;;22.80;99.90;;;;;;7386321;19;20139;-77
2022/05/16 12:16:13;;;;;;;2.95;1.17;;;22.80;99.90;;;;;;7387622;19;20134;-75
2022/05/16 12:18:43;;;;;;;4.65;1.10;;;22.70;99.90;;;;;;7386793;19;20134;-76
2022/05/16 12:21:21;;;;;;;3.35;1.13;;;22.70;99.90;;;;;;7385520;19;20131;-76
2022/05/16 12:23:48;;;;;;;4.30;1.30;;;22.60;99.90;;;;;;7384780;19;20158;-77
2022/05/16 12:26:26;;;;;;;4.05;1.08;;;22.30;99.90;;;;;;7392892;19;20135;-75
2022/05/16 12:29:13;;;;;;;2.88;1.10;;;22.00;99.90;;;;;;7401357;19;20503;-79
2022/05/16 12:31:49;;;;;;;2.90;1.13;;;21.70;99.90;;;;;;7394237;19;20174;-75
2022/05/16 12:34:33;;;;;;;2.63;1.30;;;21.60;99.90;;;;;;7394677;19;20466;-78
2022/05/16 12:37:01;;;;;;;3.55;1.42;;;21.60;99.90;;;;;;7395570;19;20701;-73
2022/05/16 12:39:37;;;;;;;2.95;1.33;;;21.50;99.90;;;;;;7392148;19;20135;-77
2022/05/16 12:42:47;;;;;;;3.28;1.40;;;21.20;99.90;;;;;;7392701;19;20146;-75
2022/05/16 12:45:40;;;;;;;4.75;1.48;;;21.00;99.90;;;;;;7393660;19;20602;-77
2022/05/16 12:48:35;;;;;;;3.33;1.40;;;21.00;99.90;;;;;;7393553;19;20201;-75
2022/05/16 12:51:10;;;;;;;3.42;1.33;;;21.00;99.90;;;;;;7397947;19;20138;-75
2022/05/16 12:54:00;;;;;;;3.28;1.60;;;20.90;99.90;;;;;;7393509;19;20146;-77
2022/05/16 12:56:35;;;;;;;3.97;1.65;;;20.80;99.90;;;;;;7391905;19;20173;-76
2022/05/16 12:59:29;;;;;;;5.57;3.70;;;20.90;99.90;;;;;;7392072;19;20190;-76
2022/05/16 13:02:03;;;;;;;2.63;1.40;;;21.00;99.90;;;;;;7392824;19;20150;-74
2022/05/16 13:04:41;;;;;;;4.70;1.40;;;20.70;99.90;;;;;;7391899;19;20139;-80
2022/05/16 13:07:27;;;;;;;3.13;1.60;;;20.90;99.90;;;;;;7391259;19;20474;-79
2022/05/16 13:10:06;;;;;;;2.78;1.23;;;20.90;99.90;;;;;;7396296;19;20818;-75
2022/05/16 13:12:50;;;;;;;4.32;1.40;;;20.90;99.90;;;;;;7395293;19;20251;-78
2022/05/16 13:15:26;;;;;;;3.30;1.38;;;21.20;99.90;;;;;;7393486;19;20134;-78
2022/05/16 13:17:57;;;;;;;3.35;1.00;;;21.40;99.90;;;;;;7391591;19;20134;-74
2022/05/16 13:20:34;;;;;;;2.45;1.10;;;21.50;99.90;;;;;;7394523;19;20150;-75
2022/05/16 13:23:01;;;;;;;2.28;1.48;;;21.70;99.90;;;;;;7392109;19;20142;-79
2022/05/16 13:25:28;;;;;;;2.35;1.38;;;21.80;99.90;;;;;;7391521;19;20146;-76
2022/05/16 13:30:42;;;;;;;2.67;1.10;;;21.70;99.90;;;;;;7394462;19;20142;-79
2022/05/16 13:33:28;;;;;;;2.50;1.25;;;21.50;99.90;;;;;;7396693;19;20164;-75
2022/05/16 13:35:54;;;;;;;2.97;1.50;;;21.50;99.90;;;;;;7394158;19;20143;-76
2022/05/16 13:38:20;;;;;;;3.33;1.42;;;21.70;99.90;;;;;;7388431;19;20138;-78
2022/05/16 13:40:48;;;;;;;1.80;1.10;;;21.80;99.90;;;;;;7391260;19;20173;-77
2022/05/16 13:43:26;;;;;;;2.50;1.02;;;21.80;99.90;;;;;;7391354;19;20123;-80
2022/05/16 13:46:07;;;;;;;1.60;1.15;;;21.90;99.90;;;;;;7392766;19;20153;-76